sensor_id;sensor_type;location;lat;lon;timestamp;pressure;altitude;pressure_sealevel;temperature;humidity
37304;BME280;23188;51.188;16.374;2023-02-08T00:02:43;102898.95;;;0.67;72.15
37304;BME280;23188;51.188;16.374;2023-02-08T00:06:45;102902.23;;;0.60;71.42
37304;BME280;23188;51.188;16.374;2023-02-08T00:10:48;102898.42;;;0.62;71.51
37304;BME280;23188;51.188;16.374;2023-02-08T00:14:51;102900.85;;;0.58;72.68
37304;BME280;23188;51.188;16.374;2023-02-08T00:18:55;102895.78;;;0.58;72.46
37304;BME280;23188;51.188;16.374;2023-02-08T00:22:59;102899.27;;;0.55;73.41
37304;BME280;23188;51.188;16.374;2023-02-08T00:27:01;102898.59;;;0.58;73.30
37304;BME280;23188;51.188;16.374;2023-02-08T00:31:04;102900.52;;;0.59;72.85
37304;BME280;23188;51.188;16.374;2023-02-08T00:35:08;102908.37;;;0.62;73.41
37304;BME280;23188;51.188;16.374;2023-02-08T00:39:10;102902.77;;;0.58;74.70
37304;BME280;23188;51.188;16.374;2023-02-08T00:43:13;102906.25;;;0.54;74.37
37304;BME280;23188;51.188;16.374;2023-02-08T00:47:15;102906.76;;;0.48;74.63
37304;BME280;23188;51.188;16.374;2023-02-08T00:51:18;102902.94;;;0.51;73.46
37304;BME280;23188;51.188;16.374;2023-02-08T00:55:22;102907.14;;;0.60;73.71
37304;BME280;23188;51.188;16.374;2023-02-08T00:59:25;102907.32;;;0.63;73.45
37304;BME280;23188;51.188;16.374;2023-02-08T01:03:28;102913.42;;;0.57;73.41
37304;BME280;23188;51.188;16.374;2023-02-08T01:07:31;102905.55;;;0.55;73.36
37304;BME280;23188;51.188;16.374;2023-02-08T01:11:33;102903.27;;;0.45;73.82
37304;BME280;23188;51.188;16.374;2023-02-08T01:15:36;102906.02;;;0.38;74.83
37304;BME280;23188;51.188;16.374;2023-02-08T01:19:40;102903.23;;;0.37;73.89
37304;BME280;23188;51.188;16.374;2023-02-08T01:23:44;102898.34;;;0.36;73.26
37304;BME280;23188;51.188;16.374;2023-02-08T01:27:48;102894.31;;;0.29;74.52
37304;BME280;23188;51.188;16.374;2023-02-08T01:31:50;102890.40;;;0.09;75.06
37304;BME280;23188;51.188;16.374;2023-02-08T01:35:54;102893.39;;;0.17;75.32
37304;BME280;23188;51.188;16.374;2023-02-08T01:39:56;102889.73;;;0.16;75.57
37304;BME280;23188;51.188;16.374;2023-02-08T01:48:50;102890.38;;;0.03;75.70
37304;BME280;23188;51.188;16.374;2023-02-08T01:52:54;102889.51;;;0.05;75.66
37304;BME280;23188;51.188;16.374;2023-02-08T01:56:59;102890.63;;;-0.19;77.11
37304;BME280;23188;51.188;16.374;2023-02-08T02:01:02;102896.44;;;-0.39;77.86
37304;BME280;23188;51.188;16.374;2023-02-08T02:05:05;102891.56;;;-0.38;77.76
37304;BME280;23188;51.188;16.374;2023-02-08T02:09:25;102893.48;;;-0.39;78.01
37304;BME280;23188;51.188;16.374;2023-02-08T02:13:30;102896.15;;;-0.58;78.88
37304;BME280;23188;51.188;16.374;2023-02-08T02:17:35;102893.55;;;-0.55;78.47
37304;BME280;23188;51.188;16.374;2023-02-08T02:21:48;102892.75;;;-0.43;78.39
37304;BME280;23188;51.188;16.374;2023-02-08T02:30:45;102900.16;;;-0.29;78.17
37304;BME280;23188;51.188;16.374;2023-02-08T02:44:00;102903.50;;;-0.53;78.87
37304;BME280;23188;51.188;16.374;2023-02-08T02:48:40;102903.25;;;-0.63;78.75
37304;BME280;23188;51.188;16.374;2023-02-08T02:57:27;102898.29;;;-0.50;76.69
37304;BME280;23188;51.188;16.374;2023-02-08T03:01:33;102903.76;;;-0.66;77.58
37304;BME280;23188;51.188;16.374;2023-02-08T03:05:37;102905.83;;;-0.68;78.57
37304;BME280;23188;51.188;16.374;2023-02-08T03:14:47;102906.50;;;-0.73;80.22
37304;BME280;23188;51.188;16.374;2023-02-08T03:22:41;102911.45;;;-0.65;82.09
37304;BME280;23188;51.188;16.374;2023-02-08T03:31:13;102908.77;;;-0.73;79.52
37304;BME280;23188;51.188;16.374;2023-02-08T03:35:32;102907.26;;;-0.65;77.74
37304;BME280;23188;51.188;16.374;2023-02-08T03:39:38;102910.71;;;-0.69;77.63
37304;BME280;23188;51.188;16.374;2023-02-08T03:43:47;102910.08;;;-0.59;77.10
37304;BME280;23188;51.188;16.374;2023-02-08T03:47:53;102913.73;;;-0.61;78.42
37304;BME280;23188;51.188;16.374;2023-02-08T03:51:59;102910.40;;;-0.64;78.98
37304;BME280;23188;51.188;16.374;2023-02-08T03:56:07;102907.73;;;-0.69;79.34
37304;BME280;23188;51.188;16.374;2023-02-08T04:00:13;102912.75;;;-0.75;78.56
37304;BME280;23188;51.188;16.374;2023-02-08T04:04:19;102911.83;;;-0.81;78.31
37304;BME280;23188;51.188;16.374;2023-02-08T04:08:24;102917.77;;;-0.80;79.86
37304;BME280;23188;51.188;16.374;2023-02-08T04:12:29;102920.08;;;-0.74;81.72
37304;BME280;23188;51.188;16.374;2023-02-08T04:16:35;102922.58;;;-0.69;82.47
37304;BME280;23188;51.188;16.374;2023-02-08T04:20:38;102918.17;;;-0.73;82.62
37304;BME280;23188;51.188;16.374;2023-02-08T04:24:41;102921.65;;;-0.74;81.94
37304;BME280;23188;51.188;16.374;2023-02-08T04:28:43;102925.96;;;-0.80;81.61
37304;BME280;23188;51.188;16.374;2023-02-08T04:32:46;102920.53;;;-0.82;81.78
37304;BME280;23188;51.188;16.374;2023-02-08T04:36:49;102925.33;;;-0.72;81.72
37304;BME280;23188;51.188;16.374;2023-02-08T04:40:51;102928.95;;;-0.78;83.08
37304;BME280;23188;51.188;16.374;2023-02-08T04:44:54;102934.90;;;-0.72;83.61
37304;BME280;23188;51.188;16.374;2023-02-08T04:48:56;102937.24;;;-0.84;83.72
37304;BME280;23188;51.188;16.374;2023-02-08T04:53:00;102935.26;;;-0.92;81.51
37304;BME280;23188;51.188;16.374;2023-02-08T04:57:03;102928.45;;;-0.95;81.52
37304;BME280;23188;51.188;16.374;2023-02-08T05:01:11;102924.65;;;-0.90;81.48
37304;BME280;23188;51.188;16.374;2023-02-08T05:05:34;102920.11;;;-0.92;82.08
37304;BME280;23188;51.188;16.374;2023-02-08T05:09:36;102920.35;;;-0.84;82.25
37304;BME280;23188;51.188;16.374;2023-02-08T05:13:39;102924.04;;;-0.80;82.61
37304;BME280;23188;51.188;16.374;2023-02-08T05:17:42;102922.09;;;-0.84;82.66
37304;BME280;23188;51.188;16.374;2023-02-08T05:21:44;102924.96;;;-0.74;82.25
37304;BME280;23188;51.188;16.374;2023-02-08T05:25:47;102931.61;;;-0.70;81.03
37304;BME280;23188;51.188;16.374;2023-02-08T05:29:50;102940.73;;;-0.64;81.00
37304;BME280;23188;51.188;16.374;2023-02-08T05:33:55;102946.23;;;-0.74;81.00
37304;BME280;23188;51.188;16.374;2023-02-08T05:37:59;102945.31;;;-0.78;81.01
37304;BME280;23188;51.188;16.374;2023-02-08T05:42:10;102943.52;;;-0.85;80.47
37304;BME280;23188;51.188;16.374;2023-02-08T05:46:13;102936.77;;;-0.81;79.65
37304;BME280;23188;51.188;16.374;2023-02-08T05:50:16;102941.05;;;-0.87;79.80
37304;BME280;23188;51.188;16.374;2023-02-08T05:58:46;102941.50;;;-1.14;81.56
37304;BME280;23188;51.188;16.374;2023-02-08T06:02:48;102938.72;;;-1.15;81.30
37304;BME280;23188;51.188;16.374;2023-02-08T06:06:50;102934.47;;;-1.20;81.29
37304;BME280;23188;51.188;16.374;2023-02-08T06:10:52;102930.80;;;-1.23;81.49
37304;BME280;23188;51.188;16.374;2023-02-08T06:15:18;102930.52;;;-1.34;81.89
37304;BME280;23188;51.188;16.374;2023-02-08T06:19:21;102932.34;;;-1.41;82.63
37304;BME280;23188;51.188;16.374;2023-02-08T06:23:23;102934.21;;;-1.46;83.31
37304;BME280;23188;51.188;16.374;2023-02-08T06:27:32;102935.69;;;-1.55;83.91
37304;BME280;23188;51.188;16.374;2023-02-08T06:35:52;102935.22;;;-1.64;84.41
37304;BME280;23188;51.188;16.374;2023-02-08T06:39:56;102938.92;;;-1.59;84.00
37304;BME280;23188;51.188;16.374;2023-02-08T06:43:58;102943.36;;;-1.52;83.61
37304;BME280;23188;51.188;16.374;2023-02-08T06:48:02;102943.38;;;-1.34;83.24
37304;BME280;23188;51.188;16.374;2023-02-08T06:52:06;102944.65;;;-1.14;82.58
37304;BME280;23188;51.188;16.374;2023-02-08T06:56:09;102947.12;;;-0.91;82.11
37304;BME280;23188;51.188;16.374;2023-02-08T07:00:12;102953.55;;;-0.73;81.37
37304;BME280;23188;51.188;16.374;2023-02-08T07:04:16;102956.81;;;-0.57;80.44
37304;BME280;23188;51.188;16.374;2023-02-08T07:08:22;102956.36;;;-0.49;79.76
37304;BME280;23188;51.188;16.374;2023-02-08T07:12:25;102970.20;;;-0.39;79.23
37304;BME280;23188;51.188;16.374;2023-02-08T07:16:27;102969.23;;;-0.27;79.31
37304;BME280;23188;51.188;16.374;2023-02-08T07:20:31;102970.04;;;-0.11;79.47
37304;BME280;23188;51.188;16.374;2023-02-08T07:24:36;102974.31;;;0.03;79.03
37304;BME280;23188;51.188;16.374;2023-02-08T07:28:40;102981.51;;;0.12;78.24
37304;BME280;23188;51.188;16.374;2023-02-08T07:32:47;102979.94;;;0.12;78.16
37304;BME280;23188;51.188;16.374;2023-02-08T07:36:50;102979.92;;;0.09;78.79
37304;BME280;23188;51.188;16.374;2023-02-08T07:45:28;102992.73;;;0.20;78.70
37304;BME280;23188;51.188;16.374;2023-02-08T07:49:40;102996.63;;;0.35;78.58
37304;BME280;23188;51.188;16.374;2023-02-08T07:53:42;103003.17;;;0.55;77.71
37304;BME280;23188;51.188;16.374;2023-02-08T08:02:03;103006.42;;;0.85;77.01
37304;BME280;23188;51.188;16.374;2023-02-08T08:06:05;103002.92;;;0.89;76.66
37304;BME280;23188;51.188;16.374;2023-02-08T08:10:07;103000.26;;;0.68;76.72
37304;BME280;23188;51.188;16.374;2023-02-08T08:14:10;103001.33;;;0.75;76.24
37304;BME280;23188;51.188;16.374;2023-02-08T08:18:12;103002.88;;;0.71;76.86
37304;BME280;23188;51.188;16.374;2023-02-08T08:22:14;103002.88;;;0.71;75.96
37304;BME280;23188;51.188;16.374;2023-02-08T08:30:34;103003.71;;;0.58;76.13
37304;BME280;23188;51.188;16.374;2023-02-08T08:34:37;103007.02;;;0.58;75.14
37304;BME280;23188;51.188;16.374;2023-02-08T08:38:45;103006.73;;;0.70;74.77
37304;BME280;23188;51.188;16.374;2023-02-08T08:42:48;103008.66;;;0.75;73.76
37304;BME280;23188;51.188;16.374;2023-02-08T08:46:55;103011.06;;;0.63;74.08
37304;BME280;23188;51.188;16.374;2023-02-08T08:51:01;103014.42;;;0.71;74.93
37304;BME280;23188;51.188;16.374;2023-02-08T08:55:05;103017.27;;;0.87;75.78
37304;BME280;23188;51.188;16.374;2023-02-08T08:59:14;103025.31;;;0.89;74.84
37304;BME280;23188;51.188;16.374;2023-02-08T09:03:17;103023.02;;;0.82;73.98
37304;BME280;23188;51.188;16.374;2023-02-08T09:07:20;103027.44;;;1.04;74.75
37304;BME280;23188;51.188;16.374;2023-02-08T09:11:23;103020.13;;;1.23;73.80
37304;BME280;23188;51.188;16.374;2023-02-08T09:15:25;103022.59;;;1.34;73.13
37304;BME280;23188;51.188;16.374;2023-02-08T09:19:28;103025.38;;;1.35;72.60
37304;BME280;23188;51.188;16.374;2023-02-08T09:23:30;103027.66;;;1.35;72.85
37304;BME280;23188;51.188;16.374;2023-02-08T09:27:33;103030.11;;;1.50;72.86
37304;BME280;23188;51.188;16.374;2023-02-08T09:31:36;103029.59;;;1.55;72.28
37304;BME280;23188;51.188;16.374;2023-02-08T09:35:38;103020.32;;;1.60;72.97
37304;BME280;23188;51.188;16.374;2023-02-08T09:39:42;103025.57;;;1.60;72.88
37304;BME280;23188;51.188;16.374;2023-02-08T09:43:59;103030.80;;;1.80;71.43
37304;BME280;23188;51.188;16.374;2023-02-08T09:48:17;103024.33;;;1.85;70.40
37304;BME280;23188;51.188;16.374;2023-02-08T09:52:41;103027.31;;;1.56;69.80
37304;BME280;23188;51.188;16.374;2023-02-08T09:56:46;103021.90;;;1.61;69.56
37304;BME280;23188;51.188;16.374;2023-02-08T10:00:51;103019.80;;;1.68;69.73
37304;BME280;23188;51.188;16.374;2023-02-08T10:04:58;103013.15;;;1.69;69.22
37304;BME280;23188;51.188;16.374;2023-02-08T10:09:06;103012.80;;;1.66;68.91
37304;BME280;23188;51.188;16.374;2023-02-08T10:18:43;103021.37;;;1.43;70.06
37304;BME280;23188;51.188;16.374;2023-02-08T10:28:01;103016.64;;;1.64;68.62
37304;BME280;23188;51.188;16.374;2023-02-08T10:32:34;103009.31;;;1.62;69.08
37304;BME280;23188;51.188;16.374;2023-02-08T10:50:18;102986.15;;;2.01;70.27
37304;BME280;23188;51.188;16.374;2023-02-08T11:46:45;102920.98;;;2.12;72.91
37304;BME280;23188;51.188;16.374;2023-02-08T12:59:05;102870.64;;;3.08;74.37
37304;BME280;23188;51.188;16.374;2023-02-08T13:21:21;102856.96;;;2.87;74.83
37304;BME280;23188;51.188;16.374;2023-02-08T13:25:35;102853.83;;;2.85;74.85
37304;BME280;23188;51.188;16.374;2023-02-08T13:29:40;102848.63;;;2.77;74.48
37304;BME280;23188;51.188;16.374;2023-02-08T13:33:55;102854.45;;;2.71;74.72
37304;BME280;23188;51.188;16.374;2023-02-08T13:38:30;102848.75;;;2.59;74.42
37304;BME280;23188;51.188;16.374;2023-02-08T13:42:39;102840.73;;;2.56;74.97
37304;BME280;23188;51.188;16.374;2023-02-08T13:46:49;102838.61;;;2.58;75.74
37304;BME280;23188;51.188;16.374;2023-02-08T13:50:55;102841.09;;;2.51;75.14
37304;BME280;23188;51.188;16.374;2023-02-08T13:59:38;102844.70;;;2.36;75.84
37304;BME280;23188;51.188;16.374;2023-02-08T14:12:50;102844.09;;;2.20;76.88
37304;BME280;23188;51.188;16.374;2023-02-08T14:17:18;102842.27;;;2.31;76.33
37304;BME280;23188;51.188;16.374;2023-02-08T14:25:46;102834.19;;;2.36;75.38
37304;BME280;23188;51.188;16.374;2023-02-08T14:38:51;102823.02;;;2.34;74.74
37304;BME280;23188;51.188;16.374;2023-02-08T14:51:46;102817.34;;;2.14;75.88
37304;BME280;23188;51.188;16.374;2023-02-08T14:56:00;102821.70;;;2.16;76.42
37304;BME280;23188;51.188;16.374;2023-02-08T15:00:31;102821.18;;;2.17;76.64
37304;BME280;23188;51.188;16.374;2023-02-08T15:04:42;102822.95;;;2.11;76.92
37304;BME280;23188;51.188;16.374;2023-02-08T15:08:49;102817.20;;;2.07;76.94
37304;BME280;23188;51.188;16.374;2023-02-08T15:12:57;102816.01;;;2.03;76.00
37304;BME280;23188;51.188;16.374;2023-02-08T15:17:20;102822.36;;;1.91;76.29
37304;BME280;23188;51.188;16.374;2023-02-08T15:21:30;102820.33;;;1.75;76.57
37304;BME280;23188;51.188;16.374;2023-02-08T15:25:41;102820.36;;;1.68;77.42
37304;BME280;23188;51.188;16.374;2023-02-08T15:29:46;102824.75;;;1.63;77.37
37304;BME280;23188;51.188;16.374;2023-02-08T15:33:52;102820.91;;;1.59;78.04
37304;BME280;23188;51.188;16.374;2023-02-08T15:37:59;102810.78;;;1.54;78.56
37304;BME280;23188;51.188;16.374;2023-02-08T15:42:04;102806.61;;;1.50;79.52
37304;BME280;23188;51.188;16.374;2023-02-08T15:46:25;102803.64;;;1.47;79.65
37304;BME280;23188;51.188;16.374;2023-02-08T15:50:32;102802.27;;;1.39;79.93
37304;BME280;23188;51.188;16.374;2023-02-08T15:54:37;102801.40;;;1.32;80.00
37304;BME280;23188;51.188;16.374;2023-02-08T15:58:45;102800.56;;;1.21;80.36
37304;BME280;23188;51.188;16.374;2023-02-08T16:02:59;102793.39;;;1.14;80.88
37304;BME280;23188;51.188;16.374;2023-02-08T16:07:05;102790.97;;;1.09;81.11
37304;BME280;23188;51.188;16.374;2023-02-08T16:11:23;102790.27;;;1.03;81.49
37304;BME280;23188;51.188;16.374;2023-02-08T16:15:42;102788.19;;;0.97;81.98
37304;BME280;23188;51.188;16.374;2023-02-08T16:19:53;102792.21;;;0.93;82.26
37304;BME280;23188;51.188;16.374;2023-02-08T16:28:31;102786.45;;;0.68;83.74
37304;BME280;23188;51.188;16.374;2023-02-08T16:32:36;102787.86;;;0.47;85.35
37304;BME280;23188;51.188;16.374;2023-02-08T16:36:46;102786.95;;;0.28;86.56
37304;BME280;23188;51.188;16.374;2023-02-08T16:40:56;102787.48;;;0.24;87.12
37304;BME280;23188;51.188;16.374;2023-02-08T16:49:18;102790.27;;;0.23;87.05
37304;BME280;23188;51.188;16.374;2023-02-08T16:53:47;102790.93;;;0.08;87.88
37304;BME280;23188;51.188;16.374;2023-02-08T16:57:54;102789.67;;;-0.08;89.17
37304;BME280;23188;51.188;16.374;2023-02-08T17:01:58;102789.81;;;-0.18;89.84
37304;BME280;23188;51.188;16.374;2023-02-08T17:06:01;102785.96;;;-0.21;90.41
37304;BME280;23188;51.188;16.374;2023-02-08T17:10:10;102789.60;;;-0.30;91.03
37304;BME280;23188;51.188;16.374;2023-02-08T17:14:17;102779.80;;;-0.37;91.77
37304;BME280;23188;51.188;16.374;2023-02-08T17:18:22;102784.11;;;-0.47;92.56
37304;BME280;23188;51.188;16.374;2023-02-08T17:22:26;102781.31;;;-0.50;93.04
37304;BME280;23188;51.188;16.374;2023-02-08T17:26:40;102782.34;;;-0.56;93.51
37304;BME280;23188;51.188;16.374;2023-02-08T17:30:46;102779.55;;;-0.58;94.03
37304;BME280;23188;51.188;16.374;2023-02-08T17:34:53;102781.57;;;-0.67;94.84
37304;BME280;23188;51.188;16.374;2023-02-08T17:38:57;102779.48;;;-0.69;95.18
37304;BME280;23188;51.188;16.374;2023-02-08T17:43:02;102775.84;;;-0.68;95.31
37304;BME280;23188;51.188;16.374;2023-02-08T17:47:06;102774.60;;;-0.67;95.37
37304;BME280;23188;51.188;16.374;2023-02-08T17:51:12;102775.11;;;-0.68;95.03
37304;BME280;23188;51.188;16.374;2023-02-08T17:55:18;102776.02;;;-0.62;93.56
37304;BME280;23188;51.188;16.374;2023-02-08T17:59:42;102778.14;;;-0.59;92.58
37304;BME280;23188;51.188;16.374;2023-02-08T18:03:53;102774.95;;;-0.65;92.82
37304;BME280;23188;51.188;16.374;2023-02-08T18:07:57;102773.03;;;-0.67;93.15
37304;BME280;23188;51.188;16.374;2023-02-08T18:12:03;102773.25;;;-0.58;93.14
37304;BME280;23188;51.188;16.374;2023-02-08T18:16:22;102765.60;;;-0.57;92.83
37304;BME280;23188;51.188;16.374;2023-02-08T18:20:26;102759.99;;;-0.61;92.94
37304;BME280;23188;51.188;16.374;2023-02-08T18:24:31;102747.45;;;-0.61;92.55
37304;BME280;23188;51.188;16.374;2023-02-08T18:28:43;102742.76;;;-0.60;92.72
37304;BME280;23188;51.188;16.374;2023-02-08T18:32:51;102744.48;;;-0.60;92.44
37304;BME280;23188;51.188;16.374;2023-02-08T18:36:55;102738.52;;;-0.70;93.19
37304;BME280;23188;51.188;16.374;2023-02-08T18:46:02;102742.14;;;-0.77;94.16
37304;BME280;23188;51.188;16.374;2023-02-08T18:50:56;102737.61;;;-0.79;93.71
37304;BME280;23188;51.188;16.374;2023-02-08T18:55:04;102734.61;;;-0.85;94.17
37304;BME280;23188;51.188;16.374;2023-02-08T18:59:14;102736.17;;;-0.85;94.34
37304;BME280;23188;51.188;16.374;2023-02-08T19:08:44;102736.86;;;-0.87;94.05
37304;BME280;23188;51.188;16.374;2023-02-08T19:12:50;102733.35;;;-0.92;94.11
37304;BME280;23188;51.188;16.374;2023-02-08T19:16:54;102735.09;;;-0.93;93.84
37304;BME280;23188;51.188;16.374;2023-02-08T19:21:09;102739.99;;;-0.88;92.61
37304;BME280;23188;51.188;16.374;2023-02-08T19:25:15;102746.50;;;-0.77;91.97
37304;BME280;23188;51.188;16.374;2023-02-08T19:34:03;102751.51;;;-0.48;90.05
37304;BME280;23188;51.188;16.374;2023-02-08T19:38:07;102751.00;;;-0.44;89.08
37304;BME280;23188;51.188;16.374;2023-02-08T19:42:19;102747.70;;;-0.42;88.51
37304;BME280;23188;51.188;16.374;2023-02-08T19:47:01;102737.86;;;-0.61;89.01
37304;BME280;23188;51.188;16.374;2023-02-08T20:01:48;102700.75;;;-1.27;92.44
37304;BME280;23188;51.188;16.374;2023-02-08T20:05:52;102692.59;;;-1.24;92.31
37304;BME280;23188;51.188;16.374;2023-02-08T20:09:56;102691.03;;;-1.22;92.02
37304;BME280;23188;51.188;16.374;2023-02-08T20:14:00;102696.43;;;-1.20;91.73
37304;BME280;23188;51.188;16.374;2023-02-08T20:18:05;102701.13;;;-1.20;91.71
37304;BME280;23188;51.188;16.374;2023-02-08T20:22:08;102700.80;;;-1.18;91.25
37304;BME280;23188;51.188;16.374;2023-02-08T20:26:19;102699.21;;;-1.19;91.19
37304;BME280;23188;51.188;16.374;2023-02-08T20:30:24;102693.79;;;-1.24;91.19
37304;BME280;23188;51.188;16.374;2023-02-08T20:34:27;102685.91;;;-1.34;91.81
37304;BME280;23188;51.188;16.374;2023-02-08T20:38:30;102689.63;;;-1.48;92.39
37304;BME280;23188;51.188;16.374;2023-02-08T20:42:34;102680.56;;;-1.51;92.32
37304;BME280;23188;51.188;16.374;2023-02-08T20:46:38;102670.29;;;-1.53;92.06
37304;BME280;23188;51.188;16.374;2023-02-08T21:22:09;102624.58;;;-1.70;90.00
37304;BME280;23188;51.188;16.374;2023-02-08T21:26:16;102620.58;;;-1.69;89.62
37304;BME280;23188;51.188;16.374;2023-02-08T21:30:19;102618.61;;;-1.76;89.86
37304;BME280;23188;51.188;16.374;2023-02-08T21:34:23;102615.17;;;-1.71;89.82
37304;BME280;23188;51.188;16.374;2023-02-08T21:38:26;102608.52;;;-1.76;89.91
37304;BME280;23188;51.188;16.374;2023-02-08T21:42:58;102607.13;;;-1.77;90.24
37304;BME280;23188;51.188;16.374;2023-02-08T21:47:01;102596.82;;;-1.82;90.68
37304;BME280;23188;51.188;16.374;2023-02-08T21:57:05;102578.11;;;-1.70;89.24
37304;BME280;23188;51.188;16.374;2023-02-08T22:01:09;102584.73;;;-1.68;88.70
37304;BME280;23188;51.188;16.374;2023-02-08T22:05:12;102587.94;;;-1.57;87.74
37304;BME280;23188;51.188;16.374;2023-02-08T22:10:28;102580.48;;;-1.51;86.73
37304;BME280;23188;51.188;16.374;2023-02-08T22:14:34;102576.14;;;-1.49;86.51
37304;BME280;23188;51.188;16.374;2023-02-08T22:18:38;102573.70;;;-1.52;86.53
37304;BME280;23188;51.188;16.374;2023-02-08T22:22:58;102577.17;;;-1.54;86.45
37304;BME280;23188;51.188;16.374;2023-02-08T22:27:02;102577.67;;;-1.57;86.40
37304;BME280;23188;51.188;16.374;2023-02-08T22:31:05;102572.59;;;-1.62;86.37
37304;BME280;23188;51.188;16.374;2023-02-08T22:35:11;102564.94;;;-1.61;85.86
37304;BME280;23188;51.188;16.374;2023-02-08T22:39:14;102565.69;;;-1.55;85.18
37304;BME280;23188;51.188;16.374;2023-02-08T22:43:17;102561.80;;;-1.63;85.35
37304;BME280;23188;51.188;16.374;2023-02-08T22:47:21;102555.19;;;-1.63;84.91
37304;BME280;23188;51.188;16.374;2023-02-08T22:51:24;102553.98;;;-1.64;84.70
37304;BME280;23188;51.188;16.374;2023-02-08T22:55:27;102554.31;;;-1.65;84.50
37304;BME280;23188;51.188;16.374;2023-02-08T22:59:31;102547.16;;;-1.67;84.37
37304;BME280;23188;51.188;16.374;2023-02-08T23:03:35;102546.84;;;-1.64;84.12
37304;BME280;23188;51.188;16.374;2023-02-08T23:07:38;102546.14;;;-1.64;84.16
37304;BME280;23188;51.188;16.374;2023-02-08T23:11:41;102545.27;;;-1.64;83.95
37304;BME280;23188;51.188;16.374;2023-02-08T23:15:44;102538.66;;;-1.62;83.62
37304;BME280;23188;51.188;16.374;2023-02-08T23:20:15;102532.77;;;-1.59;83.34
37304;BME280;23188;51.188;16.374;2023-02-08T23:24:18;102525.83;;;-1.55;83.09
37304;BME280;23188;51.188;16.374;2023-02-08T23:28:21;102523.05;;;-1.54;82.78
37304;BME280;23188;51.188;16.374;2023-02-08T23:32:24;102518.70;;;-1.54;82.59
37304;BME280;23188;51.188;16.374;2023-02-08T23:36:28;102511.92;;;-1.50;82.39
37304;BME280;23188;51.188;16.374;2023-02-08T23:40:31;102508.29;;;-1.47;82.17
37304;BME280;23188;51.188;16.374;2023-02-08T23:44:39;102508.80;;;-1.49;82.05
37304;BME280;23188;51.188;16.374;2023-02-08T23:48:43;102493.46;;;-1.53;82.44
37304;BME280;23188;51.188;16.374;2023-02-08T23:52:46;102479.88;;;-1.55;82.56
37304;BME280;23188;51.188;16.374;2023-02-08T23:56:52;102470.46;;;-1.60;82.73
